Portland, Oregon
Traffic Map
Current Weather Conditions
Portland, Oregon
Overcast Light Rain
Overcast
54°
Feels Like: 54°
Wind Chill: 54° Ceiling: 5500
Heat Index: 54° Visibility: 10mi
Dew Point: 47° Wind: 14mph
Humidity: 77% Direction: 190° (S)
Pressure: 29.91in Gusts: 0mph
Raw Report DataKPDX 232053Z 19012KT 10SM -RA SCT030 BKN055 OVC075 12/08 A2991 RMK AO2 RAB23 SLP130 P0000 60000 T01220083 58007
Traffic Incident Summary
Active as of:
Severity:
Category:
InformationThere was an issue retrieving the traffic information for this location. Please try a different location or try again shortly.
Advertisements
At Last! Intellicast now available for iPhone and Android